sensor_id;sensor_type;location;lat;lon;timestamp;pressure;altitude;pressure_sealevel;temperature;humidity
7754;BME280;3921;42.266;23.122;2023-04-25T00:00:32;94880.81;;;13.96;81.17
7754;BME280;3921;42.266;23.122;2023-04-25T00:02:59;94893.59;;;14.20;81.56
7754;BME280;3921;42.266;23.122;2023-04-25T00:05:27;94819.34;;;13.68;81.46
7754;BME280;3921;42.266;23.122;2023-04-25T00:07:55;94488.19;;;11.56;81.41
7754;BME280;3921;42.266;23.122;2023-04-25T00:10:22;94876.47;;;14.01;81.80
7754;BME280;3921;42.266;23.122;2023-04-25T00:12:50;94695.88;;;13.01;82.05
7754;BME280;3921;42.266;23.122;2023-04-25T00:15:17;94600.81;;;12.45;81.81
7754;BME280;3921;42.266;23.122;2023-04-25T00:17:44;94850.56;;;13.95;82.32
7754;BME280;3921;42.266;23.122;2023-04-25T00:20:12;94690.00;;;13.00;82.43
7754;BME280;3921;42.266;23.122;2023-04-25T00:22:39;94849.75;;;13.94;83.17
7754;BME280;3921;42.266;23.122;2023-04-25T00:25:07;94872.66;;;14.16;83.43
7754;BME280;3921;42.266;23.122;2023-04-25T00:27:34;94488.75;;;11.67;83.11
7754;BME280;3921;42.266;23.122;2023-04-25T00:30:04;94807.47;;;13.71;83.84
7754;BME280;3921;42.266;23.122;2023-04-25T00:32:32;94937.13;;;14.59;84.36
7754;BME280;3921;42.266;23.122;2023-04-25T00:34:59;94890.56;;;14.37;84.44
7754;BME280;3921;42.266;23.122;2023-04-25T00:37:26;94916.41;;;14.46;84.71
7754;BME280;3921;42.266;23.122;2023-04-25T00:39:53;94880.78;;;14.26;84.73
7754;BME280;3921;42.266;23.122;2023-04-25T00:42:21;94468.22;;;11.81;84.15
7754;BME280;3921;42.266;23.122;2023-04-25T00:44:48;94742.94;;;13.63;83.71
7754;BME280;3921;42.266;23.122;2023-04-25T00:47:17;94738.81;;;13.59;83.40
7754;BME280;3921;42.266;23.122;2023-04-25T00:49:45;94745.22;;;13.70;84.05
7754;BME280;3921;42.266;23.122;2023-04-25T00:52:12;94838.13;;;14.17;84.58
7754;BME280;3921;42.266;23.122;2023-04-25T00:54:39;94817.19;;;14.13;84.65
7754;BME280;3921;42.266;23.122;2023-04-25T00:57:06;94815.66;;;14.07;84.15
7754;BME280;3921;42.266;23.122;2023-04-25T00:59:33;94822.31;;;14.10;84.84
7754;BME280;3921;42.266;23.122;2023-04-25T01:02:00;94822.03;;;14.19;84.46
7754;BME280;3921;42.266;23.122;2023-04-25T01:04:29;94801.38;;;14.06;83.94
7754;BME280;3921;42.266;23.122;2023-04-25T01:06:56;94775.50;;;13.98;83.89
7754;BME280;3921;42.266;23.122;2023-04-25T01:09:24;94848.34;;;14.40;83.29
7754;BME280;3921;42.266;23.122;2023-04-25T01:11:52;94869.00;;;14.54;83.17
7754;BME280;3921;42.266;23.122;2023-04-25T01:14:19;94756.66;;;13.82;82.59
7754;BME280;3921;42.266;23.122;2023-04-25T01:16:46;94799.03;;;14.00;83.20
7754;BME280;3921;42.266;23.122;2023-04-25T01:19:16;94845.28;;;14.30;83.02
7754;BME280;3921;42.266;23.122;2023-04-25T01:21:45;94690.91;;;13.31;82.71
7754;BME280;3921;42.266;23.122;2023-04-25T01:24:12;94799.13;;;13.97;82.85
7754;BME280;3921;42.266;23.122;2023-04-25T01:26:41;94711.22;;;13.54;82.55
7754;BME280;3921;42.266;23.122;2023-04-25T01:29:10;94631.78;;;12.80;83.11
7754;BME280;3921;42.266;23.122;2023-04-25T01:31:37;94785.59;;;14.00;83.35
7754;BME280;3921;42.266;23.122;2023-04-25T01:34:05;94677.72;;;13.19;83.79
7754;BME280;3921;42.266;23.122;2023-04-25T01:36:32;94565.91;;;12.61;84.36
7754;BME280;3921;42.266;23.122;2023-04-25T01:39:00;94764.19;;;13.84;84.64
7754;BME280;3921;42.266;23.122;2023-04-25T01:41:28;94742.75;;;13.69;84.99
7754;BME280;3921;42.266;23.122;2023-04-25T01:43:55;94653.25;;;13.23;84.79
7754;BME280;3921;42.266;23.122;2023-04-25T01:46:22;94728.56;;;13.65;84.79
7754;BME280;3921;42.266;23.122;2023-04-25T01:48:49;94785.16;;;13.86;85.11
7754;BME280;3921;42.266;23.122;2023-04-25T01:51:16;94811.94;;;14.19;85.73
7754;BME280;3921;42.266;23.122;2023-04-25T01:53:44;94650.13;;;13.15;85.03
7754;BME280;3921;42.266;23.122;2023-04-25T01:56:12;94623.63;;;13.00;85.14
7754;BME280;3921;42.266;23.122;2023-04-25T01:58:39;94710.47;;;13.50;84.95
7754;BME280;3921;42.266;23.122;2023-04-25T02:01:06;94379.25;;;11.54;84.21
7754;BME280;3921;42.266;23.122;2023-04-25T02:03:34;94523.38;;;12.52;83.70
7754;BME280;3921;42.266;23.122;2023-04-25T02:06:01;94671.34;;;13.37;83.88
7754;BME280;3921;42.266;23.122;2023-04-25T02:08:28;94675.16;;;13.50;84.05
7754;BME280;3921;42.266;23.122;2023-04-25T02:10:55;94707.44;;;13.67;82.75
7754;BME280;3921;42.266;23.122;2023-04-25T02:13:26;94851.25;;;14.56;81.39
7754;BME280;3921;42.266;23.122;2023-04-25T02:15:53;94663.09;;;13.32;81.20
7754;BME280;3921;42.266;23.122;2023-04-25T02:18:20;94771.13;;;14.05;81.48
7754;BME280;3921;42.266;23.122;2023-04-25T02:20:47;94596.69;;;13.02;81.51
7754;BME280;3921;42.266;23.122;2023-04-25T02:23:14;94665.81;;;13.52;81.29
7754;BME280;3921;42.266;23.122;2023-04-25T02:25:41;94334.97;;;11.47;80.64
7754;BME280;3921;42.266;23.122;2023-04-25T02:28:08;94458.06;;;12.16;81.03
7754;BME280;3921;42.266;23.122;2023-04-25T02:30:37;94750.44;;;13.92;81.58
7754;BME280;3921;42.266;23.122;2023-04-25T02:33:04;94712.25;;;13.76;81.28
7754;BME280;3921;42.266;23.122;2023-04-25T02:35:31;94523.25;;;12.57;81.36
7754;BME280;3921;42.266;23.122;2023-04-25T02:37:58;94647.00;;;13.36;81.37
7754;BME280;3921;42.266;23.122;2023-04-25T02:40:25;94383.53;;;11.80;80.68
7754;BME280;3921;42.266;23.122;2023-04-25T02:42:52;94709.59;;;13.79;80.68
7754;BME280;3921;42.266;23.122;2023-04-25T02:45:19;94508.47;;;12.44;80.65
7754;BME280;3921;42.266;23.122;2023-04-25T02:47:48;94807.75;;;14.45;80.59
7754;BME280;3921;42.266;23.122;2023-04-25T02:50:15;94818.63;;;14.48;79.88
7754;BME280;3921;42.266;23.122;2023-04-25T02:52:43;94693.69;;;13.77;79.95
7754;BME280;3921;42.266;23.122;2023-04-25T02:55:10;94731.25;;;13.87;80.46
7754;BME280;3921;42.266;23.122;2023-04-25T02:57:37;94662.16;;;13.63;79.82
7754;BME280;3921;42.266;23.122;2023-04-25T03:00:05;94625.38;;;13.27;80.01
7754;BME280;3921;42.266;23.122;2023-04-25T03:02:33;94633.88;;;13.25;80.22
7754;BME280;3921;42.266;23.122;2023-04-25T03:05:01;94712.41;;;13.70;79.80
7754;BME280;3921;42.266;23.122;2023-04-25T03:07:28;94663.59;;;13.43;79.82
7754;BME280;3921;42.266;23.122;2023-04-25T03:09:55;94584.28;;;12.94;79.50
7754;BME280;3921;42.266;23.122;2023-04-25T03:12:23;94708.53;;;13.59;80.28
7754;BME280;3921;42.266;23.122;2023-04-25T03:14:50;94831.97;;;14.25;81.34
7754;BME280;3921;42.266;23.122;2023-04-25T03:17:16;94716.34;;;13.51;81.23
7754;BME280;3921;42.266;23.122;2023-04-25T03:19:43;94703.88;;;13.46;82.12
7754;BME280;3921;42.266;23.122;2023-04-25T03:22:12;94763.41;;;13.81;82.68
7754;BME280;3921;42.266;23.122;2023-04-25T03:24:39;94704.88;;;13.41;82.97
7754;BME280;3921;42.266;23.122;2023-04-25T03:27:06;94609.41;;;12.69;83.49
7754;BME280;3921;42.266;23.122;2023-04-25T03:29:33;94457.22;;;11.86;83.36
7754;BME280;3921;42.266;23.122;2023-04-25T03:32:00;94442.28;;;11.48;83.63
7754;BME280;3921;42.266;23.122;2023-04-25T03:34:27;94341.44;;;10.93;84.29
7754;BME280;3921;42.266;23.122;2023-04-25T03:36:54;94673.41;;;12.93;85.04
7754;BME280;3921;42.266;23.122;2023-04-25T03:39:22;94371.44;;;10.99;85.03
7754;BME280;3921;42.266;23.122;2023-04-25T03:41:57;94744.94;;;13.22;85.89
7754;BME280;3921;42.266;23.122;2023-04-25T03:44:24;94745.72;;;13.24;86.19
7754;BME280;3921;42.266;23.122;2023-04-25T03:46:51;94648.09;;;12.67;85.33
7754;BME280;3921;42.266;23.122;2023-04-25T03:49:18;94644.63;;;12.71;85.23
7754;BME280;3921;42.266;23.122;2023-04-25T03:51:45;94592.78;;;12.31;85.42
7754;BME280;3921;42.266;23.122;2023-04-25T03:54:12;94737.03;;;13.34;85.33
7754;BME280;3921;42.266;23.122;2023-04-25T03:56:40;94810.81;;;13.72;85.23
7754;BME280;3921;42.266;23.122;2023-04-25T03:59:07;94745.88;;;13.49;84.42
7754;BME280;3921;42.266;23.122;2023-04-25T04:01:34;94538.66;;;12.15;84.26
7754;BME280;3921;42.266;23.122;2023-04-25T04:04:01;94643.91;;;12.66;84.87
7754;BME280;3921;42.266;23.122;2023-04-25T04:06:28;94521.72;;;11.90;85.01
7754;BME280;3921;42.266;23.122;2023-04-25T04:08:55;94592.78;;;12.31;85.34
7754;BME280;3921;42.266;23.122;2023-04-25T04:11:22;94692.38;;;13.07;85.00
7754;BME280;3921;42.266;23.122;2023-04-25T04:13:51;94725.09;;;13.10;85.20
7754;BME280;3921;42.266;23.122;2023-04-25T04:16:18;94745.47;;;13.33;85.19
7754;BME280;3921;42.266;23.122;2023-04-25T04:18:45;94489.41;;;11.74;84.98
7754;BME280;3921;42.266;23.122;2023-04-25T04:21:12;94797.28;;;13.45;85.50
7754;BME280;3921;42.266;23.122;2023-04-25T04:23:40;94723.16;;;13.18;85.05
7754;BME280;3921;42.266;23.122;2023-04-25T04:26:07;94518.97;;;11.98;84.86
7754;BME280;3921;42.266;23.122;2023-04-25T04:28:34;94586.94;;;12.31;84.96
7754;BME280;3921;42.266;23.122;2023-04-25T04:31:03;94740.09;;;13.14;85.65
7754;BME280;3921;42.266;23.122;2023-04-25T04:33:30;94708.53;;;12.99;86.12
7754;BME280;3921;42.266;23.122;2023-04-25T04:35:57;94359.28;;;10.84;85.40
7754;BME280;3921;42.266;23.122;2023-04-25T04:38:24;94730.03;;;13.13;85.93
7754;BME280;3921;42.266;23.122;2023-04-25T04:40:51;94719.88;;;13.16;85.93
7754;BME280;3921;42.266;23.122;2023-04-25T04:43:19;94717.03;;;12.97;86.10
7754;BME280;3921;42.266;23.122;2023-04-25T04:45:46;94448.38;;;11.39;86.65
7754;BME280;3921;42.266;23.122;2023-04-25T04:48:14;94588.84;;;12.22;87.20
7754;BME280;3921;42.266;23.122;2023-04-25T04:50:43;94634.34;;;12.47;86.82
7754;BME280;3921;42.266;23.122;2023-04-25T04:53:10;94354.63;;;10.69;86.74
7754;BME280;3921;42.266;23.122;2023-04-25T04:55:45;94329.88;;;10.53;86.53
7754;BME280;3921;42.266;23.122;2023-04-25T04:58:13;94774.03;;;13.34;86.84
7754;BME280;3921;42.266;23.122;2023-04-25T05:00:40;94420.03;;;11.00;86.71
7754;BME280;3921;42.266;23.122;2023-04-25T05:03:07;94727.50;;;13.13;86.99
7754;BME280;3921;42.266;23.122;2023-04-25T05:05:35;94838.97;;;13.88;86.80
7754;BME280;3921;42.266;23.122;2023-04-25T05:08:05;94403.22;;;11.02;86.72
7754;BME280;3921;42.266;23.122;2023-04-25T05:10:32;94389.28;;;10.90;86.37
7754;BME280;3921;42.266;23.122;2023-04-25T05:13:00;94657.84;;;12.79;86.96
7754;BME280;3921;42.266;23.122;2023-04-25T05:15:27;94657.81;;;12.81;87.53
7754;BME280;3921;42.266;23.122;2023-04-25T05:17:55;94689.19;;;13.00;86.94
7754;BME280;3921;42.266;23.122;2023-04-25T05:20:22;94500.69;;;11.91;87.08
7754;BME280;3921;42.266;23.122;2023-04-25T05:22:50;94351.59;;;10.90;86.52
7754;BME280;3921;42.266;23.122;2023-04-25T05:25:17;94777.84;;;13.48;86.79
7754;BME280;3921;42.266;23.122;2023-04-25T05:27:44;94726.41;;;13.23;86.55
7754;BME280;3921;42.266;23.122;2023-04-25T05:30:11;94749.41;;;13.42;87.04
7754;BME280;3921;42.266;23.122;2023-04-25T05:32:38;94695.56;;;13.13;86.63
7754;BME280;3921;42.266;23.122;2023-04-25T05:35:06;94767.78;;;13.47;86.67
7754;BME280;3921;42.266;23.122;2023-04-25T05:37:36;94736.25;;;13.32;86.73
7754;BME280;3921;42.266;23.122;2023-04-25T05:40:06;94840.63;;;13.89;86.74
7754;BME280;3921;42.266;23.122;2023-04-25T05:42:34;94708.84;;;13.18;87.15
7754;BME280;3921;42.266;23.122;2023-04-25T05:45:01;94825.25;;;13.96;87.47
7754;BME280;3921;42.266;23.122;2023-04-25T05:47:28;94351.44;;;10.95;87.36
7754;BME280;3921;42.266;23.122;2023-04-25T05:49:55;94721.19;;;13.29;87.56
7754;BME280;3921;42.266;23.122;2023-04-25T05:52:22;94704.34;;;13.31;87.42
7754;BME280;3921;42.266;23.122;2023-04-25T05:54:49;94566.28;;;12.49;87.48
7754;BME280;3921;42.266;23.122;2023-04-25T05:57:22;94735.16;;;13.41;87.89
7754;BME280;3921;42.266;23.122;2023-04-25T05:59:49;94744.56;;;13.64;87.65
7754;BME280;3921;42.266;23.122;2023-04-25T06:02:16;94782.00;;;13.79;87.00
7754;BME280;3921;42.266;23.122;2023-04-25T06:04:43;94752.31;;;13.59;86.69
7754;BME280;3921;42.266;23.122;2023-04-25T06:07:10;94830.75;;;14.09;86.58
7754;BME280;3921;42.266;23.122;2023-04-25T06:09:41;94721.00;;;13.37;86.77
7754;BME280;3921;42.266;23.122;2023-04-25T06:12:08;94716.34;;;13.51;86.61
7754;BME280;3921;42.266;23.122;2023-04-25T06:14:36;94715.75;;;13.43;86.56
7754;BME280;3921;42.266;23.122;2023-04-25T06:17:03;94831.38;;;14.17;86.51
7754;BME280;3921;42.266;23.122;2023-04-25T06:19:34;94708.50;;;13.32;86.78
7754;BME280;3921;42.266;23.122;2023-04-25T06:22:04;94822.22;;;14.13;87.29
7754;BME280;3921;42.266;23.122;2023-04-25T06:24:33;94834.81;;;14.15;86.26
7754;BME280;3921;42.266;23.122;2023-04-25T06:27:00;94583.38;;;12.69;85.83
7754;BME280;3921;42.266;23.122;2023-04-25T06:29:27;94705.50;;;13.47;85.52
7754;BME280;3921;42.266;23.122;2023-04-25T06:31:55;94656.59;;;13.23;85.42
7754;BME280;3921;42.266;23.122;2023-04-25T06:34:22;94519.47;;;12.42;82.18
7754;BME280;3921;42.266;23.122;2023-04-25T06:36:49;94832.59;;;14.32;81.12
7754;BME280;3921;42.266;23.122;2023-04-25T06:39:16;94706.50;;;13.71;81.91
7754;BME280;3921;42.266;23.122;2023-04-25T06:41:43;94833.53;;;14.29;81.87
7754;BME280;3921;42.266;23.122;2023-04-25T06:44:10;94820.50;;;14.42;80.31
7754;BME280;3921;42.266;23.122;2023-04-25T06:46:37;94645.69;;;13.23;78.64
7754;BME280;3921;42.266;23.122;2023-04-25T06:49:05;94858.25;;;14.48;75.57
7754;BME280;3921;42.266;23.122;2023-04-25T06:51:32;94680.66;;;13.63;73.66
7754;BME280;3921;42.266;23.122;2023-04-25T06:54:01;94686.69;;;13.59;73.01
7754;BME280;3921;42.266;23.122;2023-04-25T06:56:29;94831.09;;;14.54;72.10
7754;BME280;3921;42.266;23.122;2023-04-25T06:58:59;94698.41;;;13.60;69.54
7754;BME280;3921;42.266;23.122;2023-04-25T07:01:27;94394.09;;;11.94;68.79
7754;BME280;3921;42.266;23.122;2023-04-25T07:03:53;94861.09;;;14.65;68.40
7754;BME280;3921;42.266;23.122;2023-04-25T07:06:22;94718.16;;;14.02;66.97
7754;BME280;3921;42.266;23.122;2023-04-25T07:08:51;94823.69;;;14.75;68.03
7754;BME280;3921;42.266;23.122;2023-04-25T07:11:18;94594.66;;;13.41;67.78
7754;BME280;3921;42.266;23.122;2023-04-25T07:13:45;94803.88;;;14.63;67.95
7754;BME280;3921;42.266;23.122;2023-04-25T07:16:11;94517.09;;;12.93;66.48
7754;BME280;3921;42.266;23.122;2023-04-25T07:18:38;94501.22;;;12.90;64.61
7754;BME280;3921;42.266;23.122;2023-04-25T07:21:05;94535.25;;;13.05;64.26
7754;BME280;3921;42.266;23.122;2023-04-25T07:23:34;94471.56;;;12.71;64.42
7754;BME280;3921;42.266;23.122;2023-04-25T07:26:01;94382.28;;;12.24;64.37
7754;BME280;3921;42.266;23.122;2023-04-25T07:28:30;94858.91;;;15.31;63.79
7754;BME280;3921;42.266;23.122;2023-04-25T07:30:57;94448.25;;;12.91;63.63
7754;BME280;3921;42.266;23.122;2023-04-25T07:33:27;94764.31;;;14.85;63.42
7754;BME280;3921;42.266;23.122;2023-04-25T07:35:54;94535.91;;;13.64;63.67
7754;BME280;3921;42.266;23.122;2023-04-25T07:38:21;94830.97;;;15.57;63.47
7754;BME280;3921;42.266;23.122;2023-04-25T07:40:50;94625.34;;;14.08;62.64
7754;BME280;3921;42.266;23.122;2023-04-25T07:43:17;94737.84;;;14.95;62.01
7754;BME280;3921;42.266;23.122;2023-04-25T07:45:44;94622.78;;;14.33;62.97
7754;BME280;3921;42.266;23.122;2023-04-25T07:48:11;94506.97;;;13.49;62.20
7754;BME280;3921;42.266;23.122;2023-04-25T07:50:38;94640.63;;;14.55;61.73
7754;BME280;3921;42.266;23.122;2023-04-25T07:53:05;94485.75;;;13.55;62.02
7754;BME280;3921;42.266;23.122;2023-04-25T07:55:32;94617.34;;;14.46;61.85
7754;BME280;3921;42.266;23.122;2023-04-25T07:58:00;94816.31;;;15.67;62.19
7754;BME280;3921;42.266;23.122;2023-04-25T08:00:33;94695.66;;;14.96;61.81
7754;BME280;3921;42.266;23.122;2023-04-25T08:03:00;94807.59;;;15.74;62.01
7754;BME280;3921;42.266;23.122;2023-04-25T08:05:28;94348.13;;;12.70;61.26
7754;BME280;3921;42.266;23.122;2023-04-25T08:07:55;94524.88;;;13.92;61.25
7754;BME280;3921;42.266;23.122;2023-04-25T08:10:22;94813.16;;;15.84;61.13
7754;BME280;3921;42.266;23.122;2023-04-25T08:12:49;94566.56;;;14.28;60.81
7754;BME280;3921;42.266;23.122;2023-04-25T08:15:17;94786.94;;;15.61;61.28
7754;BME280;3921;42.266;23.122;2023-04-25T08:17:44;94800.59;;;15.81;61.76
7754;BME280;3921;42.266;23.122;2023-04-25T08:20:12;94767.47;;;15.63;61.21
7754;BME280;3921;42.266;23.122;2023-04-25T08:22:39;94413.13;;;13.38;60.25
7754;BME280;3921;42.266;23.122;2023-04-25T08:25:06;94568.47;;;14.47;60.95
7754;BME280;3921;42.266;23.122;2023-04-25T08:27:33;94713.06;;;15.28;61.17
7754;BME280;3921;42.266;23.122;2023-04-25T08:30:00;94607.66;;;14.58;60.38
7754;BME280;3921;42.266;23.122;2023-04-25T08:32:29;94655.69;;;15.05;59.80
7754;BME280;3921;42.266;23.122;2023-04-25T08:34:56;94736.38;;;15.60;59.68
7754;BME280;3921;42.266;23.122;2023-04-25T08:37:26;94453.50;;;13.87;58.14
7754;BME280;3921;42.266;23.122;2023-04-25T08:40:03;94520.59;;;14.19;57.27
7754;BME280;3921;42.266;23.122;2023-04-25T08:42:36;94810.28;;;16.15;57.62
7754;BME280;3921;42.266;23.122;2023-04-25T08:45:05;94502.00;;;14.20;56.14
7754;BME280;3921;42.266;23.122;2023-04-25T08:47:34;94632.03;;;15.06;56.33
7754;BME280;3921;42.266;23.122;2023-04-25T08:50:03;94806.59;;;16.24;56.11
7754;BME280;3921;42.266;23.122;2023-04-25T08:52:36;94511.09;;;14.49;55.27
7754;BME280;3921;42.266;23.122;2023-04-25T08:55:05;94799.50;;;16.32;55.74
7754;BME280;3921;42.266;23.122;2023-04-25T08:57:34;94802.75;;;16.35;55.45
7754;BME280;3921;42.266;23.122;2023-04-25T09:00:02;94830.34;;;16.43;55.76
7754;BME280;3921;42.266;23.122;2023-04-25T09:02:30;94756.16;;;16.17;55.63
7754;BME280;3921;42.266;23.122;2023-04-25T09:04:59;94719.72;;;15.98;56.08
7754;BME280;3921;42.266;23.122;2023-04-25T09:07:26;94658.97;;;15.53;55.92
7754;BME280;3921;42.266;23.122;2023-04-25T09:09:54;94452.34;;;14.42;56.26
7754;BME280;3921;42.266;23.122;2023-04-25T09:12:21;94788.81;;;16.45;55.86
7754;BME280;3921;42.266;23.122;2023-04-25T09:15:03;94781.81;;;16.52;54.27
7754;BME280;3921;42.266;23.122;2023-04-25T09:17:31;94748.81;;;16.32;54.39
7754;BME280;3921;42.266;23.122;2023-04-25T09:20:07;94779.88;;;16.57;51.87
7754;BME280;3921;42.266;23.122;2023-04-25T09:22:35;94777.50;;;16.54;52.04
7754;BME280;3921;42.266;23.122;2023-04-25T09:25:07;94621.91;;;15.74;51.48
7754;BME280;3921;42.266;23.122;2023-04-25T09:27:34;94791.63;;;16.60;51.28
7754;BME280;3921;42.266;23.122;2023-04-25T09:30:01;94771.28;;;16.61;52.80
7754;BME280;3921;42.266;23.122;2023-04-25T09:32:29;94755.13;;;16.64;53.37
7754;BME280;3921;42.266;23.122;2023-04-25T09:34:56;94673.19;;;16.01;52.99
7754;BME280;3921;42.266;23.122;2023-04-25T09:37:26;94643.31;;;15.87;52.98
7754;BME280;3921;42.266;23.122;2023-04-25T09:39:55;94604.09;;;15.75;52.99
7754;BME280;3921;42.266;23.122;2023-04-25T09:42:23;94757.25;;;16.75;52.63
7754;BME280;3921;42.266;23.122;2023-04-25T09:44:52;94648.13;;;15.93;52.48
7754;BME280;3921;42.266;23.122;2023-04-25T09:47:19;94398.75;;;14.57;51.89
7754;BME280;3921;42.266;23.122;2023-04-25T09:49:47;94602.78;;;15.87;51.93
7754;BME280;3921;42.266;23.122;2023-04-25T09:52:24;94658.88;;;16.20;51.11
7754;BME280;3921;42.266;23.122;2023-04-25T09:54:52;94775.88;;;16.94;50.15
7754;BME280;3921;42.266;23.122;2023-04-25T09:57:21;94780.56;;;17.03;50.31
7754;BME280;3921;42.266;23.122;2023-04-25T09:59:50;94646.31;;;16.17;50.54
7754;BME280;3921;42.266;23.122;2023-04-25T10:02:18;94774.66;;;17.03;49.84
7754;BME280;3921;42.266;23.122;2023-04-25T10:04:49;94813.53;;;17.03;49.85
7754;BME280;3921;42.266;23.122;2023-04-25T10:07:19;94506.56;;;15.02;52.12
7754;BME280;3921;42.266;23.122;2023-04-25T10:09:48;94818.38;;;16.89;53.59
7754;BME280;3921;42.266;23.122;2023-04-25T10:12:16;94788.84;;;16.66;54.80
7754;BME280;3921;42.266;23.122;2023-04-25T10:14:44;94606.34;;;15.39;54.65
7754;BME280;3921;42.266;23.122;2023-04-25T10:17:11;94774.25;;;16.51;56.28
7754;BME280;3921;42.266;23.122;2023-04-25T10:19:45;94770.19;;;16.46;57.37
7754;BME280;3921;42.266;23.122;2023-04-25T10:22:26;94605.94;;;15.50;59.26
7754;BME280;3921;42.266;23.122;2023-04-25T10:24:58;94723.91;;;16.41;61.40
7754;BME280;3921;42.266;23.122;2023-04-25T10:27:30;94652.78;;;16.04;59.58
7754;BME280;3921;42.266;23.122;2023-04-25T10:30:01;94780.63;;;17.02;57.72
7754;BME280;3921;42.266;23.122;2023-04-25T10:32:30;94727.31;;;17.22;58.19
7754;BME280;3921;42.266;23.122;2023-04-25T10:35:06;94481.81;;;15.73;59.23
7754;BME280;3921;42.266;23.122;2023-04-25T10:37:36;94230.38;;;14.53;57.62
7754;BME280;3921;42.266;23.122;2023-04-25T10:40:09;94712.91;;;17.79;58.31
7754;BME280;3921;42.266;23.122;2023-04-25T10:42:37;94690.97;;;17.95;58.22
7754;BME280;3921;42.266;23.122;2023-04-25T10:45:05;94452.34;;;16.66;57.15
7754;BME280;3921;42.266;23.122;2023-04-25T10:47:36;94399.91;;;16.31;53.93
7754;BME280;3921;42.266;23.122;2023-04-25T10:50:08;94574.63;;;17.30;51.62
7754;BME280;3921;42.266;23.122;2023-04-25T10:52:35;94675.31;;;17.86;50.75
7754;BME280;3921;42.266;23.122;2023-04-25T10:55:09;94667.53;;;17.89;51.48
7754;BME280;3921;42.266;23.122;2023-04-25T10:57:38;94339.44;;;15.85;53.16
7754;BME280;3921;42.266;23.122;2023-04-25T11:00:08;94691.63;;;17.99;53.58
7754;BME280;3921;42.266;23.122;2023-04-25T11:02:43;94663.94;;;17.57;52.54
7754;BME280;3921;42.266;23.122;2023-04-25T11:05:20;94441.28;;;16.12;52.03
7754;BME280;3921;42.266;23.122;2023-04-25T11:07:53;94807.03;;;17.76;48.00
7754;BME280;3921;42.266;23.122;2023-04-25T11:10:30;94683.88;;;16.68;52.93
7754;BME280;3921;42.266;23.122;2023-04-25T11:12:58;94703.63;;;16.62;55.05
7754;BME280;3921;42.266;23.122;2023-04-25T11:15:26;94656.09;;;16.26;60.26
7754;BME280;3921;42.266;23.122;2023-04-25T11:17:54;94701.28;;;16.57;58.41
7754;BME280;3921;42.266;23.122;2023-04-25T11:20:22;94690.13;;;16.61;59.09
7754;BME280;3921;42.266;23.122;2023-04-25T11:22:51;94529.88;;;15.53;59.66
7754;BME280;3921;42.266;23.122;2023-04-25T11:25:19;94577.91;;;15.76;60.38
7754;BME280;3921;42.266;23.122;2023-04-25T11:27:52;94716.16;;;16.87;62.42
7754;BME280;3921;42.266;23.122;2023-04-25T11:30:21;94714.09;;;17.14;64.71
7754;BME280;3921;42.266;23.122;2023-04-25T11:32:48;94668.22;;;16.99;63.64
7754;BME280;3921;42.266;23.122;2023-04-25T11:35:15;94629.81;;;16.88;60.87
7754;BME280;3921;42.266;23.122;2023-04-25T11:37:43;94629.47;;;16.96;60.22
7754;BME280;3921;42.266;23.122;2023-04-25T11:40:21;94465.63;;;15.96;62.02
7754;BME280;3921;42.266;23.122;2023-04-25T11:42:52;94559.59;;;16.68;64.00
7754;BME280;3921;42.266;23.122;2023-04-25T11:45:21;94392.78;;;15.62;63.46
7754;BME280;3921;42.266;23.122;2023-04-25T11:47:49;94566.31;;;16.71;63.29
7754;BME280;3921;42.266;23.122;2023-04-25T11:50:16;94608.41;;;16.94;59.71
7754;BME280;3921;42.266;23.122;2023-04-25T11:52:47;94698.59;;;17.20;56.99
7754;BME280;3921;42.266;23.122;2023-04-25T11:55:15;94697.72;;;17.40;58.21
7754;BME280;3921;42.266;23.122;2023-04-25T11:57:44;94653.88;;;16.98;59.59
7754;BME280;3921;42.266;23.122;2023-04-25T12:00:14;94525.19;;;16.05;61.37
7754;BME280;3921;42.266;23.122;2023-04-25T12:02:42;94735.19;;;17.35;56.21
7754;BME280;3921;42.266;23.122;2023-04-25T12:05:10;94712.03;;;17.03;53.80
7754;BME280;3921;42.266;23.122;2023-04-25T12:07:41;94453.78;;;15.35;53.89
7754;BME280;3921;42.266;23.122;2023-04-25T12:10:21;94486.00;;;15.52;52.36
7754;BME280;3921;42.266;23.122;2023-04-25T12:12:54;94471.91;;;15.26;52.74
7754;BME280;3921;42.266;23.122;2023-04-25T12:15:29;94763.81;;;16.99;53.13
7754;BME280;3921;42.266;23.122;2023-04-25T12:18:09;94455.75;;;15.08;53.13
7754;BME280;3921;42.266;23.122;2023-04-25T12:20:39;94657.63;;;16.30;53.62
7754;BME280;3921;42.266;23.122;2023-04-25T12:26:13;94651.38;;;16.17;52.51
7754;BME280;3921;42.266;23.122;2023-04-25T12:28:50;94337.34;;;14.10;52.92
7754;BME280;3921;42.266;23.122;2023-04-25T12:31:30;94528.66;;;15.19;53.20
7754;BME280;3921;42.266;23.122;2023-04-25T12:33:58;94483.44;;;14.90;54.24
7754;BME280;3921;42.266;23.122;2023-04-25T12:36:25;94629.84;;;15.64;55.11
7754;BME280;3921;42.266;23.122;2023-04-25T12:38:52;94338.97;;;13.89;55.46
7754;BME280;3921;42.266;23.122;2023-04-25T12:41:19;94717.34;;;16.15;58.36
7754;BME280;3921;42.266;23.122;2023-04-25T12:43:46;94783.13;;;16.61;60.56
7754;BME280;3921;42.266;23.122;2023-04-25T12:46:13;94604.16;;;15.52;62.56
7754;BME280;3921;42.266;23.122;2023-04-25T12:48:41;94541.53;;;15.14;64.37
7754;BME280;3921;42.266;23.122;2023-04-25T12:51:08;94508.28;;;14.80;64.20
7754;BME280;3921;42.266;23.122;2023-04-25T12:53:36;94760.16;;;16.23;64.47
7754;BME280;3921;42.266;23.122;2023-04-25T12:56:06;94406.34;;;13.89;63.48
7754;BME280;3921;42.266;23.122;2023-04-25T12:58:33;94351.75;;;13.38;63.60
7754;BME280;3921;42.266;23.122;2023-04-25T13:01:00;94488.94;;;14.32;63.30
7754;BME280;3921;42.266;23.122;2023-04-25T13:03:27;94622.47;;;15.14;63.54
7754;BME280;3921;42.266;23.122;2023-04-25T13:05:55;94634.19;;;15.17;65.05
7754;BME280;3921;42.266;23.122;2023-04-25T13:08:22;94427.56;;;14.06;65.86
7754;BME280;3921;42.266;23.122;2023-04-25T13:10:49;94529.59;;;14.73;66.62
7754;BME280;3921;42.266;23.122;2023-04-25T13:13:16;94780.59;;;16.18;68.44
7754;BME280;3921;42.266;23.122;2023-04-25T13:15:45;94621.28;;;15.23;67.87
7754;BME280;3921;42.266;23.122;2023-04-25T13:18:13;94288.03;;;13.33;67.11